Terminal Aerodrome Forecast
Issued by NWS Cleveland, OH

Home | Current Version | Previous Version | Graphics & Text | Print | Product List | Glossary Off
Versions: 1 2 3 4 5 6 7 8 9 10 11 12 13 14 15 16 17 18 19 20 21 22 23

000
FTUS41 KCLE 230500
TAFYNG
TAF
KYNG 230526Z 2306/2406 30010G18KT P6SM VCSH SCT015 OVC025
      TEMPO 2306/2310 -SHRA OVC015
     FM231300 32012G20KT P6SM SCT015 OVC025
     FM231900 32012G20KT P6SM SCT045
     FM232300 34008KT P6SM SCT250
     FM240500 VRB03KT P6SM SCT100 BKN250=

USA.gov is the U.S. government's official web portal to all federal, state and local government web resources and services.